createdAt,value
2018-11-20T00:00:04.106Z,54.88
2018-11-20T00:02:38.536Z,54.80
2018-11-20T00:05:12.855Z,54.94
2018-11-20T00:07:51.188Z,55.36
2018-11-20T00:10:24.597Z,55.29
2018-11-20T00:13:02.888Z,55.02
2018-11-20T00:17:43.186Z,55.28
2018-11-20T00:20:21.699Z,55.08
2018-11-20T00:22:58.962Z,55.76
2018-11-20T00:25:37.182Z,55.21
2018-11-20T00:28:14.644Z,55.12
2018-11-20T00:30:54.736Z,55.24
2018-11-20T00:33:29.023Z,55.35
2018-11-20T00:36:03.399Z,55.46
2018-11-20T00:38:41.622Z,55.66
2018-11-20T00:41:18.768Z,55.12
2018-11-20T00:43:52.164Z,55.66
2018-11-20T00:46:26.726Z,55.66
2018-11-20T00:51:03.167Z,55.37
2018-11-20T00:53:37.591Z,55.87
2018-11-20T00:56:27.120Z,56.31
2018-11-20T00:59:03.436Z,56.28
2018-11-20T01:03:44.934Z,56.16
2018-11-20T01:06:24.542Z,56.17
2018-11-20T01:09:07.623Z,56.15
2018-11-20T01:11:42.773Z,56.15
2018-11-20T01:14:30.960Z,56.07
2018-11-20T01:17:07.340Z,56.10
2018-11-20T01:19:41.703Z,55.95
2018-11-20T01:37:48.333Z,55.92
2018-11-20T01:40:23.741Z,56.25
2018-11-20T01:44:02.141Z,55.88
2018-11-20T01:46:36.545Z,56.04
2018-11-20T01:49:18.995Z,55.90
2018-11-20T01:51:52.385Z,56.03
2018-11-20T01:54:25.747Z,56.07
2018-11-20T01:56:59.112Z,56.39
2018-11-20T01:59:38.344Z,56.05
2018-11-20T02:02:14.816Z,56.12
2018-11-20T02:04:50.213Z,55.98
2018-11-20T02:07:24.959Z,56.39
2018-11-20T02:09:59.533Z,56.29
2018-11-20T02:13:03.931Z,56.24
2018-11-20T02:15:40.229Z,56.26
2018-11-20T02:18:25.459Z,56.32
2018-11-20T02:21:01.796Z,56.37
2018-11-20T02:23:35.158Z,56.49
2018-11-20T02:26:09.527Z,56.51
2018-11-20T02:28:42.915Z,56.58
2018-11-20T02:31:17.404Z,56.76
2018-11-20T02:33:50.927Z,56.62
2018-11-20T02:36:24.299Z,56.69
2018-11-20T02:38:58.592Z,56.35
2018-11-20T02:41:52.797Z,56.29
2018-11-20T02:44:46.056Z,55.74
2018-11-20T02:47:22.398Z,55.79
2018-11-20T02:51:58.786Z,55.95
2018-11-20T02:55:03.045Z,56.33
2018-11-20T02:58:11.360Z,56.33
2018-11-20T03:00:46.535Z,56.63
2018-11-20T03:03:21.537Z,56.33
2018-11-20T03:05:55.949Z,56.45
2018-11-20T03:08:30.423Z,56.63
2018-11-20T03:11:15.756Z,56.53
2018-11-20T03:13:50.101Z,56.67
2018-11-20T03:17:28.479Z,56.49
2018-11-20T03:20:01.889Z,56.48
2018-11-20T03:23:11.078Z,56.42
2018-11-20T03:25:46.871Z,56.34
2018-11-20T03:28:21.693Z,56.58
2018-11-20T03:31:03.369Z,56.37
2018-11-20T03:33:37.768Z,56.20
2018-11-20T03:36:12.412Z,55.93
2018-11-20T03:38:47.575Z,56.21
2018-11-20T03:41:21.899Z,56.18
2018-11-20T03:45:59.295Z,56.48
2018-11-20T03:48:33.410Z,56.13
2018-11-20T03:53:12.101Z,55.98
2018-11-20T03:55:48.461Z,56.60
2018-11-20T03:58:27.567Z,55.68
2018-11-20T04:02:08.852Z,56.08
2018-11-20T04:05:43.666Z,56.17
2018-11-20T04:10:19.123Z,56.40
2018-11-20T04:12:54.592Z,56.43
2018-11-20T04:15:32.989Z,56.40
2018-11-20T04:18:32.187Z,56.20
2018-11-20T04:21:12.381Z,56.11
2018-11-20T04:23:46.881Z,55.42
2018-11-20T04:26:20.412Z,55.58
2018-11-20T04:28:53.960Z,55.56
2018-11-20T04:32:05.542Z,55.63
2018-11-20T04:34:39.744Z,55.43
2018-11-20T04:37:20.146Z,55.77
2018-11-20T04:39:53.471Z,55.73
2018-11-20T04:42:32.855Z,55.86
2018-11-20T04:45:15.169Z,55.62
2018-11-20T04:49:50.589Z,55.51
2018-11-20T04:52:39.877Z,55.63
2018-11-20T04:55:22.116Z,55.32
2018-11-20T04:59:58.506Z,56.17
2018-11-20T05:02:33.082Z,56.03
2018-11-20T05:05:07.600Z,56.22
2018-11-20T05:07:42.067Z,55.48
2018-11-20T05:12:17.340Z,55.44
2018-11-20T05:14:51.911Z,55.98
2018-11-20T05:17:26.309Z,56.00
2018-11-20T05:20:00.627Z,55.79
2018-11-20T05:23:05.823Z,55.62
2018-11-20T05:25:41.997Z,55.91
2018-11-20T05:28:16.757Z,55.55
2018-11-20T05:31:25.955Z,55.93
2018-11-20T05:36:03.366Z,55.67
2018-11-20T05:40:38.565Z,56.24
2018-11-20T05:43:13.612Z,56.17
2018-11-20T05:46:05.769Z,56.61
2018-11-20T05:48:40.220Z,55.93
2018-11-20T05:51:16.425Z,55.78
2018-11-20T05:53:54.520Z,56.60
2018-11-20T05:56:28.700Z,56.52
2018-11-20T05:59:10.831Z,56.52
2018-11-20T06:01:45.384Z,56.57
2018-11-20T06:04:19.979Z,56.81
2018-11-20T06:06:54.311Z,56.23
2018-11-20T06:09:27.733Z,56.31
2018-11-20T06:12:01.064Z,56.44
2018-11-20T06:14:38.449Z,56.53
2018-11-20T06:17:32.680Z,56.57
2018-11-20T06:20:06.061Z,56.97
2018-11-20T06:22:47.239Z,57.03
2018-11-20T06:27:25.828Z,56.68
2018-11-20T06:30:00.259Z,56.77
2018-11-20T06:32:44.471Z,57.07
2018-11-20T06:35:20.916Z,56.95
2018-11-20T06:38:15.257Z,56.79
2018-11-20T06:40:58.452Z,57.03
2018-11-20T06:43:32.697Z,57.04
2018-11-20T06:46:09.136Z,56.75
2018-11-20T06:48:47.471Z,56.97
2018-11-20T06:51:51.834Z,56.98
2018-11-20T06:54:30.153Z,56.96
2018-11-20T06:57:04.457Z,56.87
2018-11-20T06:59:44.677Z,57.24
2018-11-20T07:04:20.965Z,56.97
2018-11-20T07:06:55.311Z,57.24
2018-11-20T07:09:31.578Z,56.70
2018-11-20T07:12:10.145Z,56.55
2018-11-20T07:14:44.551Z,56.71
2018-11-20T07:17:39.632Z,56.53
2018-11-20T07:20:14.080Z,56.22
2018-11-20T07:24:53.539Z,56.27
2018-11-20T07:27:30.839Z,56.68
2018-11-20T07:30:05.306Z,56.30
2018-11-20T07:32:41.525Z,56.39
2018-11-20T07:35:52.193Z,56.31
2018-11-20T07:38:32.379Z,56.51
2018-11-20T07:41:07.768Z,56.63
2018-11-20T07:43:43.200Z,56.29
2018-11-20T07:46:35.489Z,57.13
2018-11-20T07:49:11.784Z,56.90
2018-11-20T07:53:53.157Z,56.67
2018-11-20T07:56:27.375Z,56.94
2018-11-20T07:59:09.836Z,58.24
2018-11-20T08:01:46.086Z,57.67
2018-11-20T08:04:34.489Z,56.43
2018-11-20T08:07:12.791Z,57.00
2018-11-20T08:10:00.999Z,56.63
2018-11-20T08:12:39.336Z,56.37
2018-11-20T08:15:14.887Z,57.32
2018-11-20T08:17:50.116Z,57.43
2018-11-20T08:20:24.624Z,57.05
2018-11-20T08:22:57.971Z,57.01
2018-11-20T08:25:32.428Z,56.93
2018-11-20T08:29:05.712Z,56.80
2018-11-20T08:31:45.002Z,56.86
2018-11-20T08:35:23.392Z,56.48
2018-11-20T08:37:57.917Z,55.98
2018-11-20T08:42:35.180Z,55.95
2018-11-20T08:45:10.860Z,56.03
2018-11-20T08:47:45.337Z,55.55
2018-11-20T08:50:25.525Z,55.66
2018-11-20T08:53:14.730Z,55.94
2018-11-20T08:55:48.916Z,55.39
2018-11-20T09:00:27.419Z,56.13
2018-11-20T09:03:15.863Z,55.57
2018-11-20T09:05:57.069Z,55.38
2018-11-20T09:08:31.598Z,55.29
2018-11-20T09:11:21.899Z,55.85
2018-11-20T09:13:56.267Z,55.65
2018-11-20T09:16:30.534Z,55.35
2018-11-20T09:20:10.035Z,55.52
2018-11-20T09:22:48.317Z,55.92
2018-11-20T09:25:22.809Z,55.49
2018-11-20T09:27:57.178Z,54.59
2018-11-20T09:32:35.391Z,55.09
2018-11-20T09:35:10.697Z,55.57
2018-11-20T09:37:47.758Z,55.67
2018-11-20T09:40:40.122Z,55.81
2018-11-20T09:43:26.459Z,55.58
2018-11-20T09:46:12.792Z,55.83
2018-11-20T09:49:53.196Z,55.56
2018-11-20T09:54:31.589Z,56.24
2018-11-20T09:57:20.839Z,55.58
2018-11-20T10:00:25.196Z,55.30
2018-11-20T10:05:02.644Z,55.97
2018-11-20T10:07:37.043Z,56.11
2018-11-20T10:10:12.875Z,56.58
2018-11-20T10:12:46.187Z,55.98
2018-11-20T10:15:21.532Z,56.35
2018-11-20T10:17:55.973Z,56.46
2018-11-20T10:22:32.173Z,56.29
2018-11-20T10:25:05.750Z,56.10
2018-11-20T10:27:43.843Z,56.08
2018-11-20T10:30:20.744Z,55.91
2018-11-20T10:34:58.197Z,56.05
2018-11-20T10:37:38.371Z,55.86
2018-11-20T10:40:13.977Z,55.79
2018-11-20T10:42:51.178Z,55.53
2018-11-20T10:45:25.450Z,55.28
2018-11-20T10:48:04.623Z,56.11
2018-11-20T10:50:39.019Z,56.40
2018-11-20T10:53:13.327Z,55.67
2018-11-20T10:56:23.567Z,56.03
2018-11-20T10:58:57.877Z,55.15
2018-11-20T11:01:33.438Z,56.00
2018-11-20T11:04:34.610Z,56.30
2018-11-20T11:07:10.670Z,56.04
2018-11-20T11:09:44.751Z,56.55
2018-11-20T11:12:25.027Z,56.02
2018-11-20T11:17:02.427Z,55.99
2018-11-20T11:19:39.556Z,56.86
2018-11-20T11:22:15.150Z,57.20
2018-11-20T11:24:48.536Z,56.89
2018-11-20T11:27:22.929Z,57.01
2018-11-20T11:29:59.124Z,56.50
2018-11-20T11:32:33.493Z,57.02
2018-11-20T11:35:19.679Z,56.30
2018-11-20T11:37:56.020Z,55.59
2018-11-20T11:40:30.374Z,56.29
2018-11-20T11:43:18.718Z,55.94
2018-11-20T11:46:54.981Z,56.25
2018-11-20T11:49:28.437Z,56.22
2018-11-20T11:52:02.756Z,56.34
2018-11-20T11:54:42.138Z,56.02
2018-11-20T11:57:16.767Z,55.68
2018-11-20T11:59:51.319Z,56.18
